sensor_id;sensor_type;location;lat;lon;timestamp;temperature;humidity
30300;DHT22;17110;52.602;12.998;2024-02-04T00:00:38;7.60;99.90
30300;DHT22;17110;52.602;12.998;2024-02-04T00:05:38;7.50;99.90
30300;DHT22;17110;52.602;12.998;2024-02-04T00:10:39;7.50;99.90
30300;DHT22;17110;52.602;12.998;2024-02-04T00:15:41;7.40;99.90
30300;DHT22;17110;52.602;12.998;2024-02-04T00:20:42;7.40;99.90
30300;DHT22;17110;52.602;12.998;2024-02-04T00:25:42;7.40;99.90
30300;DHT22;17110;52.602;12.998;2024-02-04T00:30:44;7.30;99.90
30300;DHT22;17110;52.602;12.998;2024-02-04T00:35:45;7.20;99.90
30300;DHT22;17110;52.602;12.998;2024-02-04T00:40:46;7.00;99.90
30300;DHT22;17110;52.602;12.998;2024-02-04T00:45:48;6.90;99.90
30300;DHT22;17110;52.602;12.998;2024-02-04T00:50:48;6.80;99.90
30300;DHT22;17110;52.602;12.998;2024-02-04T00:55:49;6.60;99.90
30300;DHT22;17110;52.602;12.998;2024-02-04T01:00:51;6.50;99.90
30300;DHT22;17110;52.602;12.998;2024-02-04T01:05:52;6.30;99.90
30300;DHT22;17110;52.602;12.998;2024-02-04T01:10:52;6.20;99.90
30300;DHT22;17110;52.602;12.998;2024-02-04T01:15:54;6.10;99.90
30300;DHT22;17110;52.602;12.998;2024-02-04T01:20:55;5.90;99.90
30300;DHT22;17110;52.602;12.998;2024-02-04T01:25:55;5.90;99.90
30300;DHT22;17110;52.602;12.998;2024-02-04T01:30:57;5.70;99.90
30300;DHT22;17110;52.602;12.998;2024-02-04T01:35:59;5.60;99.90
30300;DHT22;17110;52.602;12.998;2024-02-04T01:40:59;5.60;99.90
30300;DHT22;17110;52.602;12.998;2024-02-04T01:46:02;5.50;99.90
30300;DHT22;17110;52.602;12.998;2024-02-04T01:51:03;5.60;99.90
30300;DHT22;17110;52.602;12.998;2024-02-04T01:56:05;5.70;99.90
30300;DHT22;17110;52.602;12.998;2024-02-04T02:01:08;5.90;99.90
30300;DHT22;17110;52.602;12.998;2024-02-04T02:06:09;6.00;99.90
30300;DHT22;17110;52.602;12.998;2024-02-04T02:11:14;6.00;99.90
30300;DHT22;17110;52.602;12.998;2024-02-04T02:16:21;6.20;99.90
30300;DHT22;17110;52.602;12.998;2024-02-04T02:21:35;6.20;99.90
30300;DHT22;17110;52.602;12.998;2024-02-04T02:26:40;6.10;99.90
30300;DHT22;17110;52.602;12.998;2024-02-04T02:31:42;6.20;99.90
30300;DHT22;17110;52.602;12.998;2024-02-04T02:36:44;6.20;99.90
30300;DHT22;17110;52.602;12.998;2024-02-04T02:41:50;6.10;99.90
30300;DHT22;17110;52.602;12.998;2024-02-04T02:46:51;6.10;99.90
30300;DHT22;17110;52.602;12.998;2024-02-04T02:51:52;6.10;99.90
30300;DHT22;17110;52.602;12.998;2024-02-04T02:56:54;6.30;99.90
30300;DHT22;17110;52.602;12.998;2024-02-04T03:01:55;6.40;99.90
30300;DHT22;17110;52.602;12.998;2024-02-04T03:06:56;6.40;99.90
30300;DHT22;17110;52.602;12.998;2024-02-04T03:11:57;6.50;99.90
30300;DHT22;17110;52.602;12.998;2024-02-04T03:16:58;6.60;99.90
30300;DHT22;17110;52.602;12.998;2024-02-04T03:21:59;6.70;99.90
30300;DHT22;17110;52.602;12.998;2024-02-04T03:27:03;6.70;99.90
30300;DHT22;17110;52.602;12.998;2024-02-04T03:32:04;6.80;99.90
30300;DHT22;17110;52.602;12.998;2024-02-04T03:37:05;6.90;99.90
30300;DHT22;17110;52.602;12.998;2024-02-04T03:42:07;7.00;99.90
30300;DHT22;17110;52.602;12.998;2024-02-04T03:47:08;7.00;99.90
30300;DHT22;17110;52.602;12.998;2024-02-04T03:52:08;6.80;99.90
30300;DHT22;17110;52.602;12.998;2024-02-04T03:57:11;6.70;99.90
30300;DHT22;17110;52.602;12.998;2024-02-04T04:02:11;6.70;99.90
30300;DHT22;17110;52.602;12.998;2024-02-04T04:07:12;6.60;99.90
30300;DHT22;17110;52.602;12.998;2024-02-04T04:12:14;6.50;99.90
30300;DHT22;17110;52.602;12.998;2024-02-04T04:17:14;6.40;99.90
30300;DHT22;17110;52.602;12.998;2024-02-04T04:22:15;6.30;99.90
30300;DHT22;17110;52.602;12.998;2024-02-04T04:27:17;6.30;99.90
30300;DHT22;17110;52.602;12.998;2024-02-04T04:32:18;6.20;99.90
30300;DHT22;17110;52.602;12.998;2024-02-04T04:37:18;6.20;99.90
30300;DHT22;17110;52.602;12.998;2024-02-04T04:42:20;6.30;99.90
30300;DHT22;17110;52.602;12.998;2024-02-04T04:47:21;6.30;99.90
30300;DHT22;17110;52.602;12.998;2024-02-04T04:52:21;6.20;99.90
30300;DHT22;17110;52.602;12.998;2024-02-04T04:57:23;6.10;99.90
30300;DHT22;17110;52.602;12.998;2024-02-04T05:02:24;6.10;99.90
30300;DHT22;17110;52.602;12.998;2024-02-04T05:07:25;6.00;99.90
30300;DHT22;17110;52.602;12.998;2024-02-04T05:12:27;5.90;99.90
30300;DHT22;17110;52.602;12.998;2024-02-04T05:17:27;5.90;99.90
30300;DHT22;17110;52.602;12.998;2024-02-04T05:22:28;5.90;99.90
30300;DHT22;17110;52.602;12.998;2024-02-04T05:27:30;6.00;99.90
30300;DHT22;17110;52.602;12.998;2024-02-04T05:32:30;6.00;99.90
30300;DHT22;17110;52.602;12.998;2024-02-04T05:37:31;6.10;99.90
30300;DHT22;17110;52.602;12.998;2024-02-04T05:42:33;6.10;99.90
30300;DHT22;17110;52.602;12.998;2024-02-04T05:47:33;6.10;99.90
30300;DHT22;17110;52.602;12.998;2024-02-04T05:52:34;6.00;99.90
30300;DHT22;17110;52.602;12.998;2024-02-04T05:57:36;6.00;99.90
30300;DHT22;17110;52.602;12.998;2024-02-04T06:02:37;6.00;99.90
30300;DHT22;17110;52.602;12.998;2024-02-04T06:07:37;6.00;99.90
30300;DHT22;17110;52.602;12.998;2024-02-04T06:12:39;5.90;99.90
30300;DHT22;17110;52.602;12.998;2024-02-04T06:17:40;5.90;99.90
30300;DHT22;17110;52.602;12.998;2024-02-04T06:22:41;5.90;99.90
30300;DHT22;17110;52.602;12.998;2024-02-04T06:27:43;5.90;99.90
30300;DHT22;17110;52.602;12.998;2024-02-04T06:32:43;5.80;99.90
30300;DHT22;17110;52.602;12.998;2024-02-04T06:37:44;5.70;99.90
30300;DHT22;17110;52.602;12.998;2024-02-04T06:42:46;5.80;99.90
30300;DHT22;17110;52.602;12.998;2024-02-04T06:47:47;5.80;99.90
30300;DHT22;17110;52.602;12.998;2024-02-04T06:52:47;5.70;99.90
30300;DHT22;17110;52.602;12.998;2024-02-04T06:57:49;5.70;99.90
30300;DHT22;17110;52.602;12.998;2024-02-04T07:02:50;5.80;99.90
30300;DHT22;17110;52.602;12.998;2024-02-04T07:07:50;5.90;99.90
30300;DHT22;17110;52.602;12.998;2024-02-04T07:12:52;5.90;99.90
30300;DHT22;17110;52.602;12.998;2024-02-04T07:17:53;5.90;99.90
30300;DHT22;17110;52.602;12.998;2024-02-04T07:22:54;6.10;99.90
30300;DHT22;17110;52.602;12.998;2024-02-04T07:27:55;6.20;99.90
30300;DHT22;17110;52.602;12.998;2024-02-04T07:32:56;6.20;99.90
30300;DHT22;17110;52.602;12.998;2024-02-04T07:37:57;6.30;99.90
30300;DHT22;17110;52.602;12.998;2024-02-04T07:42:59;6.40;99.90
30300;DHT22;17110;52.602;12.998;2024-02-04T07:47:59;6.60;99.90
30300;DHT22;17110;52.602;12.998;2024-02-04T07:53:00;6.50;99.90
30300;DHT22;17110;52.602;12.998;2024-02-04T07:58:02;6.60;99.90
30300;DHT22;17110;52.602;12.998;2024-02-04T08:03:03;6.70;99.90
30300;DHT22;17110;52.602;12.998;2024-02-04T08:08:04;6.80;99.90
30300;DHT22;17110;52.602;12.998;2024-02-04T08:13:06;6.90;99.90
30300;DHT22;17110;52.602;12.998;2024-02-04T08:18:07;7.00;99.90
30300;DHT22;17110;52.602;12.998;2024-02-04T08:23:07;7.20;99.90
30300;DHT22;17110;52.602;12.998;2024-02-04T08:28:10;7.20;99.90
30300;DHT22;17110;52.602;12.998;2024-02-04T08:33:10;7.20;99.90
30300;DHT22;17110;52.602;12.998;2024-02-04T08:38:11;7.30;99.90
30300;DHT22;17110;52.602;12.998;2024-02-04T08:43:13;7.40;99.90
30300;DHT22;17110;52.602;12.998;2024-02-04T08:48:13;7.30;99.90
30300;DHT22;17110;52.602;12.998;2024-02-04T08:53:14;7.40;99.90
30300;DHT22;17110;52.602;12.998;2024-02-04T08:58:16;7.50;99.90
30300;DHT22;17110;52.602;12.998;2024-02-04T09:03:16;7.60;99.90
30300;DHT22;17110;52.602;12.998;2024-02-04T09:08:17;7.70;99.90
30300;DHT22;17110;52.602;12.998;2024-02-04T09:13:19;7.70;99.90
30300;DHT22;17110;52.602;12.998;2024-02-04T09:18:20;7.80;99.90
30300;DHT22;17110;52.602;12.998;2024-02-04T09:23:20;7.80;99.90
30300;DHT22;17110;52.602;12.998;2024-02-04T09:28:22;7.90;99.90
30300;DHT22;17110;52.602;12.998;2024-02-04T09:33:23;8.00;99.90
30300;DHT22;17110;52.602;12.998;2024-02-04T09:38:24;8.20;99.90
30300;DHT22;17110;52.602;12.998;2024-02-04T09:43:26;8.20;99.90
30300;DHT22;17110;52.602;12.998;2024-02-04T09:48:30;8.40;99.90
30300;DHT22;17110;52.602;12.998;2024-02-04T09:53:33;8.50;99.90
30300;DHT22;17110;52.602;12.998;2024-02-04T09:58:36;8.60;99.90
30300;DHT22;17110;52.602;12.998;2024-02-04T10:03:36;8.60;99.90
30300;DHT22;17110;52.602;12.998;2024-02-04T10:08:37;8.70;99.90
30300;DHT22;17110;52.602;12.998;2024-02-04T10:13:44;8.80;99.90
30300;DHT22;17110;52.602;12.998;2024-02-04T10:18:45;8.90;99.90
30300;DHT22;17110;52.602;12.998;2024-02-04T10:23:46;8.90;99.90
30300;DHT22;17110;52.602;12.998;2024-02-04T10:28:48;9.00;99.90
30300;DHT22;17110;52.602;12.998;2024-02-04T10:33:50;9.00;99.90
30300;DHT22;17110;52.602;12.998;2024-02-04T10:38:50;9.00;99.90
30300;DHT22;17110;52.602;12.998;2024-02-04T10:43:53;9.00;99.90
30300;DHT22;17110;52.602;12.998;2024-02-04T10:48:57;8.90;99.90
30300;DHT22;17110;52.602;12.998;2024-02-04T10:53:59;8.90;99.90
30300;DHT22;17110;52.602;12.998;2024-02-04T10:59:03;8.90;99.90
30300;DHT22;17110;52.602;12.998;2024-02-04T11:04:04;8.90;99.90
30300;DHT22;17110;52.602;12.998;2024-02-04T11:09:05;9.00;99.90
30300;DHT22;17110;52.602;12.998;2024-02-04T11:14:10;9.00;99.90
30300;DHT22;17110;52.602;12.998;2024-02-04T11:19:20;9.00;99.90
30300;DHT22;17110;52.602;12.998;2024-02-04T11:24:36;8.90;99.90
30300;DHT22;17110;52.602;12.998;2024-02-04T11:29:42;9.00;99.90
30300;DHT22;17110;52.602;12.998;2024-02-04T11:34:44;8.90;99.90
30300;DHT22;17110;52.602;12.998;2024-02-04T11:39:48;8.90;99.90
30300;DHT22;17110;52.602;12.998;2024-02-04T11:45:06;8.80;99.90
30300;DHT22;17110;52.602;12.998;2024-02-04T11:50:07;8.90;99.90
30300;DHT22;17110;52.602;12.998;2024-02-04T11:55:13;9.00;99.90
30300;DHT22;17110;52.602;12.998;2024-02-04T12:00:15;9.20;99.90
30300;DHT22;17110;52.602;12.998;2024-02-04T12:05:16;9.10;99.90
30300;DHT22;17110;52.602;12.998;2024-02-04T12:10:17;9.00;99.90
30300;DHT22;17110;52.602;12.998;2024-02-04T12:15:19;8.90;99.90
30300;DHT22;17110;52.602;12.998;2024-02-04T12:20:20;8.80;99.90
30300;DHT22;17110;52.602;12.998;2024-02-04T12:25:21;8.80;99.90
30300;DHT22;17110;52.602;12.998;2024-02-04T12:30:23;8.70;99.90
30300;DHT22;17110;52.602;12.998;2024-02-04T12:35:23;8.70;99.90
30300;DHT22;17110;52.602;12.998;2024-02-04T12:40:24;8.60;99.90
30300;DHT22;17110;52.602;12.998;2024-02-04T12:45:27;8.70;99.90
30300;DHT22;17110;52.602;12.998;2024-02-04T12:50:28;8.80;99.90
30300;DHT22;17110;52.602;12.998;2024-02-04T12:55:29;8.80;99.90
30300;DHT22;17110;52.602;12.998;2024-02-04T13:00:32;8.80;99.90
30300;DHT22;17110;52.602;12.998;2024-02-04T13:05:32;8.80;99.90
30300;DHT22;17110;52.602;12.998;2024-02-04T13:10:34;8.70;99.90
30300;DHT22;17110;52.602;12.998;2024-02-04T13:15:38;8.70;99.90
30300;DHT22;17110;52.602;12.998;2024-02-04T13:20:39;8.70;99.90
30300;DHT22;17110;52.602;12.998;2024-02-04T13:25:39;8.60;99.90
30300;DHT22;17110;52.602;12.998;2024-02-04T13:30:41;8.60;99.90
30300;DHT22;17110;52.602;12.998;2024-02-04T13:35:42;8.60;99.90
30300;DHT22;17110;52.602;12.998;2024-02-04T13:40:43;8.60;99.90
30300;DHT22;17110;52.602;12.998;2024-02-04T13:45:45;8.60;99.90
30300;DHT22;17110;52.602;12.998;2024-02-04T13:50:45;8.60;99.90
30300;DHT22;17110;52.602;12.998;2024-02-04T13:55:46;8.50;99.90
30300;DHT22;17110;52.602;12.998;2024-02-04T14:00:48;8.60;99.90
30300;DHT22;17110;52.602;12.998;2024-02-04T14:05:50;8.60;99.90
30300;DHT22;17110;52.602;12.998;2024-02-04T14:10:50;8.70;99.90
30300;DHT22;17110;52.602;12.998;2024-02-04T14:15:52;8.60;99.90
30300;DHT22;17110;52.602;12.998;2024-02-04T14:20:53;8.60;99.90
30300;DHT22;17110;52.602;12.998;2024-02-04T14:25:53;8.60;99.90
30300;DHT22;17110;52.602;12.998;2024-02-04T14:30:55;8.60;99.90
30300;DHT22;17110;52.602;12.998;2024-02-04T14:35:56;8.60;99.90
30300;DHT22;17110;52.602;12.998;2024-02-04T14:40:57;8.60;99.90
30300;DHT22;17110;52.602;12.998;2024-02-04T14:45:59;8.60;99.90
30300;DHT22;17110;52.602;12.998;2024-02-04T14:51:00;8.60;99.90
30300;DHT22;17110;52.602;12.998;2024-02-04T14:56:01;8.60;99.90
30300;DHT22;17110;52.602;12.998;2024-02-04T15:01:03;8.50;99.90
30300;DHT22;17110;52.602;12.998;2024-02-04T15:06:04;8.50;99.90
30300;DHT22;17110;52.602;12.998;2024-02-04T15:11:04;8.60;99.90
30300;DHT22;17110;52.602;12.998;2024-02-04T15:16:07;8.50;99.90
30300;DHT22;17110;52.602;12.998;2024-02-04T15:21:09;8.50;99.90
30300;DHT22;17110;52.602;12.998;2024-02-04T15:26:10;8.50;99.90
30300;DHT22;17110;52.602;12.998;2024-02-04T15:31:13;8.50;99.90
30300;DHT22;17110;52.602;12.998;2024-02-04T15:36:13;8.50;99.90
30300;DHT22;17110;52.602;12.998;2024-02-04T15:41:14;8.50;99.90
30300;DHT22;17110;52.602;12.998;2024-02-04T15:46:17;8.50;99.90
30300;DHT22;17110;52.602;12.998;2024-02-04T15:51:18;8.50;99.90
30300;DHT22;17110;52.602;12.998;2024-02-04T15:56:19;8.50;99.90
30300;DHT22;17110;52.602;12.998;2024-02-04T16:01:23;8.50;99.90
30300;DHT22;17110;52.602;12.998;2024-02-04T16:06:26;8.40;99.90
30300;DHT22;17110;52.602;12.998;2024-02-04T16:11:31;8.50;99.90
30300;DHT22;17110;52.602;12.998;2024-02-04T16:16:39;8.50;99.90
30300;DHT22;17110;52.602;12.998;2024-02-04T16:21:42;8.40;99.90
30300;DHT22;17110;52.602;12.998;2024-02-04T16:26:43;8.40;99.90
30300;DHT22;17110;52.602;12.998;2024-02-04T16:31:45;8.50;99.90
30300;DHT22;17110;52.602;12.998;2024-02-04T16:36:46;8.50;99.90
30300;DHT22;17110;52.602;12.998;2024-02-04T16:41:47;8.50;99.90
30300;DHT22;17110;52.602;12.998;2024-02-04T16:46:49;8.40;99.90
30300;DHT22;17110;52.602;12.998;2024-02-04T16:51:50;8.40;99.90
30300;DHT22;17110;52.602;12.998;2024-02-04T16:56:50;8.40;99.90
30300;DHT22;17110;52.602;12.998;2024-02-04T17:01:52;8.40;99.90
30300;DHT22;17110;52.602;12.998;2024-02-04T17:06:53;8.40;99.90
30300;DHT22;17110;52.602;12.998;2024-02-04T17:11:55;8.50;99.90
30300;DHT22;17110;52.602;12.998;2024-02-04T17:17:01;8.40;99.90
30300;DHT22;17110;52.602;12.998;2024-02-04T17:22:08;8.50;99.90
30300;DHT22;17110;52.602;12.998;2024-02-04T17:27:13;8.50;99.90
30300;DHT22;17110;52.602;12.998;2024-02-04T17:32:15;8.50;99.90
30300;DHT22;17110;52.602;12.998;2024-02-04T17:37:16;8.40;99.90
30300;DHT22;17110;52.602;12.998;2024-02-04T17:42:16;8.40;99.90
30300;DHT22;17110;52.602;12.998;2024-02-04T17:47:18;8.40;99.90
30300;DHT22;17110;52.602;12.998;2024-02-04T17:52:20;8.30;99.90
30300;DHT22;17110;52.602;12.998;2024-02-04T17:57:21;8.30;99.90
30300;DHT22;17110;52.602;12.998;2024-02-04T18:02:23;8.30;99.90
30300;DHT22;17110;52.602;12.998;2024-02-04T18:07:23;8.30;99.90
30300;DHT22;17110;52.602;12.998;2024-02-04T18:12:24;8.30;99.90
30300;DHT22;17110;52.602;12.998;2024-02-04T18:17:26;8.30;99.90
30300;DHT22;17110;52.602;12.998;2024-02-04T18:22:27;8.30;99.90
30300;DHT22;17110;52.602;12.998;2024-02-04T18:27:27;8.30;99.90
30300;DHT22;17110;52.602;12.998;2024-02-04T18:32:29;8.20;99.90
30300;DHT22;17110;52.602;12.998;2024-02-04T18:37:31;8.20;99.90
30300;DHT22;17110;52.602;12.998;2024-02-04T18:42:32;8.20;99.90
30300;DHT22;17110;52.602;12.998;2024-02-04T18:47:34;8.20;99.90
30300;DHT22;17110;52.602;12.998;2024-02-04T18:52:34;8.10;99.90
30300;DHT22;17110;52.602;12.998;2024-02-04T18:57:35;8.20;99.90
30300;DHT22;17110;52.602;12.998;2024-02-04T19:02:37;8.20;99.90
30300;DHT22;17110;52.602;12.998;2024-02-04T19:07:38;8.30;99.90
30300;DHT22;17110;52.602;12.998;2024-02-04T19:12:38;8.30;99.90
30300;DHT22;17110;52.602;12.998;2024-02-04T19:17:40;8.30;99.90
30300;DHT22;17110;52.602;12.998;2024-02-04T19:22:41;8.30;99.90
30300;DHT22;17110;52.602;12.998;2024-02-04T19:27:45;8.20;99.90
30300;DHT22;17110;52.602;12.998;2024-02-04T19:32:48;8.10;99.90
30300;DHT22;17110;52.602;12.998;2024-02-04T19:37:50;8.10;99.90
30300;DHT22;17110;52.602;12.998;2024-02-04T19:42:51;8.10;99.90
30300;DHT22;17110;52.602;12.998;2024-02-04T19:47:53;8.10;99.90
30300;DHT22;17110;52.602;12.998;2024-02-04T19:52:53;8.10;99.90
30300;DHT22;17110;52.602;12.998;2024-02-04T19:57:54;8.00;99.90
30300;DHT22;17110;52.602;12.998;2024-02-04T20:02:56;8.00;99.90
30300;DHT22;17110;52.602;12.998;2024-02-04T20:07:56;7.90;99.90
30300;DHT22;17110;52.602;12.998;2024-02-04T20:12:57;7.90;99.90
30300;DHT22;17110;52.602;12.998;2024-02-04T20:17:59;7.90;99.90
30300;DHT22;17110;52.602;12.998;2024-02-04T20:22:59;7.90;99.90
30300;DHT22;17110;52.602;12.998;2024-02-04T20:28:00;7.80;99.90
30300;DHT22;17110;52.602;12.998;2024-02-04T20:33:03;7.80;99.90
30300;DHT22;17110;52.602;12.998;2024-02-04T20:38:03;7.80;99.90
30300;DHT22;17110;52.602;12.998;2024-02-04T20:43:04;7.70;99.90
30300;DHT22;17110;52.602;12.998;2024-02-04T20:48:07;7.60;99.90
30300;DHT22;17110;52.602;12.998;2024-02-04T20:53:08;7.60;99.90
30300;DHT22;17110;52.602;12.998;2024-02-04T20:58:09;7.50;99.90
30300;DHT22;17110;52.602;12.998;2024-02-04T21:03:11;7.50;99.90
30300;DHT22;17110;52.602;12.998;2024-02-04T21:08:11;7.50;99.90
30300;DHT22;17110;52.602;12.998;2024-02-04T21:13:12;7.40;99.90
30300;DHT22;17110;52.602;12.998;2024-02-04T21:18:14;7.40;99.90
30300;DHT22;17110;52.602;12.998;2024-02-04T21:23:15;7.30;99.90
30300;DHT22;17110;52.602;12.998;2024-02-04T21:28:15;7.30;99.90
30300;DHT22;17110;52.602;12.998;2024-02-04T21:33:17;7.30;99.90
30300;DHT22;17110;52.602;12.998;2024-02-04T21:38:18;7.30;99.90
30300;DHT22;17110;52.602;12.998;2024-02-04T21:43:18;7.20;99.90
30300;DHT22;17110;52.602;12.998;2024-02-04T21:48:20;7.20;99.90
30300;DHT22;17110;52.602;12.998;2024-02-04T21:53:21;7.20;99.90
30300;DHT22;17110;52.602;12.998;2024-02-04T21:58:22;7.20;99.90
30300;DHT22;17110;52.602;12.998;2024-02-04T22:03:23;7.20;99.90
30300;DHT22;17110;52.602;12.998;2024-02-04T22:08:24;7.20;99.90
30300;DHT22;17110;52.602;12.998;2024-02-04T22:13:25;7.20;99.90
30300;DHT22;17110;52.602;12.998;2024-02-04T22:18:27;7.20;99.90
30300;DHT22;17110;52.602;12.998;2024-02-04T22:23:27;7.20;99.90
30300;DHT22;17110;52.602;12.998;2024-02-04T22:28:28;7.20;99.90
30300;DHT22;17110;52.602;12.998;2024-02-04T22:33:30;7.20;99.90
30300;DHT22;17110;52.602;12.998;2024-02-04T22:38:31;7.20;99.90
30300;DHT22;17110;52.602;12.998;2024-02-04T22:43:32;7.20;99.90
30300;DHT22;17110;52.602;12.998;2024-02-04T22:48:34;7.20;99.90
30300;DHT22;17110;52.602;12.998;2024-02-04T22:53:35;7.20;99.90
30300;DHT22;17110;52.602;12.998;2024-02-04T22:58:36;7.30;99.90
30300;DHT22;17110;52.602;12.998;2024-02-04T23:03:38;7.30;99.90
30300;DHT22;17110;52.602;12.998;2024-02-04T23:08:39;7.40;99.90
30300;DHT22;17110;52.602;12.998;2024-02-04T23:13:39;7.40;99.90
30300;DHT22;17110;52.602;12.998;2024-02-04T23:18:41;7.40;99.90
30300;DHT22;17110;52.602;12.998;2024-02-04T23:23:42;7.40;99.90
30300;DHT22;17110;52.602;12.998;2024-02-04T23:28:42;7.30;99.90
30300;DHT22;17110;52.602;12.998;2024-02-04T23:33:44;7.20;99.90
30300;DHT22;17110;52.602;12.998;2024-02-04T23:38:45;7.20;99.90
30300;DHT22;17110;52.602;12.998;2024-02-04T23:43:46;7.30;99.90
30300;DHT22;17110;52.602;12.998;2024-02-04T23:48:48;7.40;99.90
30300;DHT22;17110;52.602;12.998;2024-02-04T23:53:48;7.60;99.90
30300;DHT22;17110;52.602;12.998;2024-02-04T23:58:49;7.60;99.90
